Time;durP1;ratioP1;P1;durP2;ratioP2;P2;SDS_P1;SDS_P2;PMS_P1;PMS_P2;Temp;Humidity;BMP_temperature;BMP_pressure;BME280_temperature;BME280_humidity;BME280_pressure;Samples;Min_cycle;Max_cycle;Signal;HPM_P1;HPM_P2
2023/02/22 00:02:49;;;;;;;17.55;7.05;;;;;;;8.57;100.00;101361.78;6261288;28;20441;-72
2023/02/22 00:05:52;;;;;;;16.05;6.70;;;;;;;8.58;100.00;101363.50;6247315;28;20049;-72
2023/02/22 00:08:56;;;;;;;15.40;7.20;;;;;;;8.57;100.00;101372.28;6254307;28;20457;-72
2023/02/22 00:11:58;;;;;;;22.48;7.40;;;;;;;8.57;100.00;101353.94;6254164;28;20060;-72
2023/02/22 00:14:59;;;;;;;20.13;7.70;;;;;;;8.54;100.00;101352.28;6246003;28;20130;-72
2023/02/22 00:18:00;;;;;;;22.20;8.45;;;;;;;8.50;100.00;101361.16;6253821;28;20460;-72
2023/02/22 00:21:02;;;;;;;20.60;8.40;;;;;;;8.48;100.00;101359.50;6254028;28;20052;-72
2023/02/22 00:24:21;;;;;;;20.70;7.88;;;;;;;8.51;100.00;101362.88;6253751;28;20349;-72
2023/02/22 00:27:22;;;;;;;27.95;8.95;;;;;;;8.48;100.00;101360.34;6253823;28;20069;-72
2023/02/22 00:30:26;;;;;;;15.13;6.50;;;;;;;8.49;100.00;101363.81;6253754;28;20426;-72
2023/02/22 00:33:27;;;;;;;18.23;6.50;;;;;;;8.49;100.00;101350.72;6251896;28;20384;-73
2023/02/22 00:36:29;;;;;;;20.92;7.68;;;;;;;8.43;100.00;101351.78;6253425;28;20041;-72
2023/02/22 00:39:32;;;;;;;17.45;6.35;;;;;;;8.45;100.00;101347.38;6253520;28;20350;-72
2023/02/22 00:42:33;;;;;;;16.77;6.68;;;;;;;8.45;100.00;101352.63;6253466;28;20050;-72
2023/02/22 00:45:36;;;;;;;19.35;6.55;;;;;;;8.43;100.00;101345.69;6253345;28;20053;-72
2023/02/22 00:48:37;;;;;;;20.58;6.97;;;;;;;8.43;100.00;101343.94;6244358;28;20049;-72
2023/02/22 00:51:38;;;;;;;18.75;6.10;;;;;;;8.42;100.00;101328.28;6253399;28;20045;-72
2023/02/22 00:54:41;;;;;;;18.08;7.03;;;;;;;8.39;100.00;101337.09;6253238;28;20057;-72
2023/02/22 00:57:42;;;;;;;16.88;7.25;;;;;;;8.37;100.00;101336.31;6252902;28;20050;-72
2023/02/22 01:00:44;;;;;;;18.48;6.72;;;;;;;8.32;100.00;101330.34;6245028;28;20052;-72
2023/02/22 01:03:46;;;;;;;19.23;6.57;;;;;;;8.34;100.00;101328.50;6245053;28;20053;-72
2023/02/22 01:06:47;;;;;;;18.02;7.88;;;;;;;8.34;100.00;101325.91;6252654;28;20349;-72
2023/02/22 01:09:50;;;;;;;12.68;6.28;;;;;;;8.37;100.00;101329.31;6254236;28;20057;-72
2023/02/22 01:12:53;;;;;;;20.23;7.72;;;;;;;8.37;100.00;101331.06;6245041;28;20084;-72
2023/02/22 01:15:55;;;;;;;22.75;8.10;;;;;;;8.36;100.00;101324.09;6251834;28;20461;-72
2023/02/22 01:18:56;;;;;;;18.50;6.38;;;;;;;8.36;100.00;101324.97;6252824;28;20049;-72
2023/02/22 01:21:58;;;;;;;22.13;7.70;;;;;;;8.32;100.00;101318.09;6252551;28;20072;-72
2023/02/22 01:25:00;;;;;;;18.63;6.88;;;;;;;8.33;100.00;101317.19;6244516;28;20056;-72
2023/02/22 01:28:02;;;;;;;19.23;7.53;;;;;;;8.31;100.00;101308.53;6252043;28;20053;-72
2023/02/22 01:31:05;;;;;;;19.90;7.22;;;;;;;8.28;100.00;101316.50;6250917;28;20052;-72
2023/02/22 01:34:06;;;;;;;18.88;7.63;;;;;;;8.21;100.00;101306.28;6252286;28;20052;-72
2023/02/22 01:37:07;;;;;;;20.90;7.25;;;;;;;8.16;100.00;101310.81;6252027;28;20049;-72
2023/02/22 01:40:16;;;;;;;19.05;7.28;;;;;;;8.10;100.00;101297.03;6252196;28;20072;-72
2023/02/22 01:43:22;;;;;;;16.50;6.90;;;;;;;8.05;100.00;101298.09;6251968;28;20050;-72
2023/02/22 01:46:25;;;;;;;23.38;7.80;;;;;;;8.01;100.00;101293.88;6251990;28;20056;-72
2023/02/22 01:49:31;;;;;;;15.57;6.38;;;;;;;7.89;100.00;101295.97;6247324;28;20081;-72
2023/02/22 01:52:32;;;;;;;20.27;6.82;;;;;;;7.85;100.00;101289.13;6248101;28;20053;-72
2023/02/22 01:55:35;;;;;;;19.08;7.00;;;;;;;7.80;100.00;101292.81;6251543;28;20049;-72
2023/02/22 01:58:41;;;;;;;19.38;7.32;;;;;;;7.76;100.00;101288.59;6252144;28;20045;-72
2023/02/22 02:01:43;;;;;;;18.88;7.05;;;;;;;7.71;100.00;101283.50;6250581;28;20045;-72
2023/02/22 02:04:45;;;;;;;17.35;6.30;;;;;;;7.65;100.00;101281.09;6251626;28;20133;-72
2023/02/22 02:07:48;;;;;;;20.20;6.45;;;;;;;7.61;100.00;101287.34;6251231;28;20482;-72
2023/02/22 02:10:52;;;;;;;17.67;7.25;;;;;;;7.53;100.00;101284.97;6251648;28;20045;-72
2023/02/22 02:13:56;;;;;;;14.35;6.30;;;;;;;7.48;100.00;101278.19;6251215;28;20361;-72
2023/02/22 02:17:00;;;;;;;17.33;6.32;;;;;;;7.45;100.00;101278.25;6257854;28;20457;-72
2023/02/22 02:20:10;;;;;;;20.35;7.15;;;;;;;7.37;100.00;101275.91;6243561;28;20392;-72
2023/02/22 02:23:39;;;;;;;16.65;6.15;;;;;;;7.31;100.00;101273.47;6251018;28;20049;-72
2023/02/22 02:27:01;;;;;;;17.55;5.45;;;;;;;7.22;100.00;101265.91;6250998;28;20276;-72
2023/02/22 02:30:36;;;;;;;20.25;7.13;;;;;;;7.16;100.00;101261.75;6251280;28;20566;-72
2023/02/22 02:33:44;;;;;;;13.60;5.25;;;;;;;7.15;100.00;101267.03;6251365;28;20050;-72
2023/02/22 02:36:58;;;;;;;15.35;5.88;;;;;;;7.15;100.00;101265.25;6250836;28;20441;-72
2023/02/22 02:40:10;;;;;;;13.15;5.55;;;;;;;7.19;100.00;101266.03;6250835;28;20353;-72
2023/02/22 02:43:15;;;;;;;15.40;5.13;;;;;;;7.19;100.00;101252.97;6250824;28;20060;-72
2023/02/22 02:46:22;;;;;;;15.30;6.10;;;;;;;7.26;100.00;101259.69;6249048;28;20057;-72
2023/02/22 02:49:29;;;;;;;18.67;6.55;;;;;;;7.20;100.00;101252.06;6250727;28;20048;-72
2023/02/22 02:52:34;;;;;;;17.17;5.60;;;;;;;7.21;100.00;101248.53;6250530;28;20358;-72
2023/02/22 02:55:36;;;;;;;18.00;6.38;;;;;;;7.23;100.00;101246.75;6250019;28;20045;-72
2023/02/22 02:58:47;;;;;;;15.13;6.53;;;;;;;7.22;100.00;101247.63;6250440;28;20048;-72
2023/02/22 03:02:01;;;;;;;16.85;6.88;;;;;;;7.18;100.00;101241.66;6250426;28;20045;-72
2023/02/22 03:05:15;;;;;;;22.73;7.57;;;;;;;7.12;100.00;101240.06;6251042;28;20132;-72
2023/02/22 03:08:24;;;;;;;15.43;5.80;;;;;;;7.08;100.00;101232.38;6247806;28;20061;-72
2023/02/22 03:11:30;;;;;;;16.43;7.03;;;;;;;7.06;100.00;101223.72;6250201;28;20045;-72
2023/02/22 03:14:40;;;;;;;12.75;5.65;;;;;;;6.97;100.00;101224.03;6250183;28;20128;-72
2023/02/22 03:17:50;;;;;;;15.40;7.32;;;;;;;6.93;100.00;101219.78;6248477;28;20350;-72
2023/02/22 03:21:00;;;;;;;20.48;7.05;;;;;;;6.93;100.00;101219.78;6250177;28;20046;-72
2023/02/22 03:24:10;;;;;;;14.52;5.75;;;;;;;6.91;100.00;101214.63;6250097;28;20354;-72
2023/02/22 03:27:14;;;;;;;;;;;;;;;6.85;100.00;101215.63;6242325;28;20045;-72
2023/02/22 03:30:23;;;;;;;19.25;6.30;;;;;;;6.82;100.00;101212.28;6250045;28;20230;-72
2023/02/22 03:33:32;;;;;;;18.98;7.25;;;;;;;6.86;100.00;101214.75;6249988;28;20124;-72
2023/02/22 03:36:40;;;;;;;19.05;7.70;;;;;;;6.86;100.00;101204.31;6250079;28;20053;-72
2023/02/22 03:39:44;;;;;;;15.07;6.25;;;;;;;6.85;100.00;101207.78;6250024;28;20350;-72
2023/02/22 03:42:48;;;;;;;23.70;7.50;;;;;;;6.82;100.00;101207.06;6250164;28;20050;-72
2023/02/22 03:45:50;;;;;;;15.43;6.82;;;;;;;6.73;100.00;101194.28;6247607;28;20050;-72
2023/02/22 03:48:58;;;;;;;22.60;8.02;;;;;;;6.72;100.00;101197.78;6231727;28;20473;-72
2023/02/22 03:52:02;;;;;;;26.83;8.20;;;;;;;6.71;100.00;101204.75;6233240;28;20080;-72
2023/02/22 03:55:09;;;;;;;25.52;7.65;;;;;;;6.70;100.00;101186.53;6247496;28;20049;-72
2023/02/22 03:58:13;;;;;;;21.80;7.88;;;;;;;6.69;100.00;101192.66;6226705;28;20065;-72
2023/02/22 04:01:15;;;;;;;21.92;7.95;;;;;;;6.63;100.00;101193.69;6237930;28;20133;-72
2023/02/22 04:04:17;;;;;;;24.50;7.40;;;;;;;6.61;100.00;101198.09;6228961;28;20046;-72
2023/02/22 04:07:19;;;;;;;18.67;7.90;;;;;;;6.57;100.00;101192.09;6241438;28;20053;-72
2023/02/22 04:10:22;;;;;;;20.42;7.07;;;;;;;6.61;100.00;101195.50;6249664;28;20057;-72
2023/02/22 04:13:23;;;;;;;21.92;6.85;;;;;;;6.53;100.00;101194.84;6249683;28;20331;-72
2023/02/22 04:16:24;;;;;;;18.55;6.22;;;;;;;6.51;100.00;101197.53;6241521;28;20048;-72
2023/02/22 04:19:26;;;;;;;27.65;7.13;;;;;;;6.50;100.00;101194.97;6236533;28;20345;-72
2023/02/22 04:22:29;;;;;;;17.95;7.28;;;;;;;6.46;100.00;101180.28;6249572;28;20068;-72
2023/02/22 04:25:30;;;;;;;17.33;7.07;;;;;;;6.48;100.00;101179.31;6252351;28;20041;-72
2023/02/22 04:28:31;;;;;;;24.40;7.07;;;;;;;6.51;100.00;101183.63;6253848;28;20435;-72
2023/02/22 04:31:33;;;;;;;26.00;6.85;;;;;;;6.50;100.00;101181.91;6250220;28;20041;-72
2023/02/22 04:34:34;;;;;;;16.90;6.43;;;;;;;6.54;100.00;101189.59;6248901;28;20060;-72
2023/02/22 04:37:37;;;;;;;17.33;5.82;;;;;;;6.52;100.00;101187.94;6228914;28;20049;-72
2023/02/22 04:40:39;;;;;;;19.10;6.78;;;;;;;6.46;100.00;101178.53;6250936;28;20053;-72
2023/02/22 04:43:40;;;;;;;22.83;7.80;;;;;;;6.47;100.00;101185.47;6245187;28;20056;-72
2023/02/22 04:46:41;;;;;;;16.17;6.22;;;;;;;6.46;100.00;101180.28;6253526;28;20052;-72
2023/02/22 04:49:44;;;;;;;21.63;7.05;;;;;;;6.45;100.00;101189.00;6251206;28;20057;-72
2023/02/22 04:52:47;;;;;;;27.20;8.52;;;;;;;6.43;100.00;101181.22;6219102;28;20052;-72
2023/02/22 04:55:48;;;;;;;19.40;7.53;;;;;;;6.42;100.00;101186.50;6206494;28;20365;-72
2023/02/22 04:58:49;;;;;;;23.83;9.18;;;;;;;6.41;100.00;101182.19;6232146;28;20042;-72
2023/02/22 05:01:51;;;;;;;19.33;8.65;;;;;;;6.39;100.00;101179.59;6233003;28;20041;-72
2023/02/22 05:04:52;;;;;;;32.05;11.18;;;;;;;6.35;100.00;101176.22;6230668;28;20049;-72
2023/02/22 05:07:55;;;;;;;31.13;11.02;;;;;;;6.29;100.00;101173.78;6233106;28;20053;-72
2023/02/22 05:10:56;;;;;;;26.95;8.88;;;;;;;6.26;100.00;101173.00;6229870;28;20048;-72
2023/02/22 05:13:58;;;;;;;22.13;8.32;;;;;;;6.25;100.00;101166.09;6232193;28;20049;-72
2023/02/22 05:17:00;;;;;;;22.35;8.15;;;;;;;6.23;100.00;101160.06;6231380;28;20049;-72
2023/02/22 05:20:02;;;;;;;21.02;8.50;;;;;;;6.22;100.00;101167.06;6232198;28;20052;-72
2023/02/22 05:23:05;;;;;;;21.70;7.07;;;;;;;6.24;100.00;101161.78;6227548;28;20611;-72
2023/02/22 05:26:07;;;;;;;19.17;6.15;;;;;;;6.25;100.00;101159.13;6230783;28;20060;-72
2023/02/22 05:29:08;;;;;;;17.33;7.10;;;;;;;6.23;100.00;101167.91;6231012;28;20052;-72
2023/02/22 05:32:11;;;;;;;23.33;7.40;;;;;;;6.17;100.00;101155.84;6233441;28;20049;-72
2023/02/22 05:35:13;;;;;;;29.48;8.88;;;;;;;6.19;100.00;101148.00;6230510;28;20042;-72
2023/02/22 05:38:16;;;;;;;19.98;7.53;;;;;;;6.15;100.00;101141.16;6231992;28;20591;-72
2023/02/22 05:41:17;;;;;;;19.73;7.35;;;;;;;6.13;100.00;101148.16;6232145;28;20041;-72
2023/02/22 05:44:19;;;;;;;19.08;7.13;;;;;;;6.14;100.00;101139.47;6235532;28;20049;-73
2023/02/22 05:47:20;;;;;;;30.05;8.18;;;;;;;6.09;100.00;101135.22;6231584;28;20045;-72
2023/02/22 05:50:22;;;;;;;18.13;6.50;;;;;;;6.06;100.00;101134.44;6237587;28;20460;-72
2023/02/22 05:53:24;;;;;;;31.83;8.52;;;;;;;6.04;100.00;101133.63;6251721;28;20048;-72
2023/02/22 05:56:29;;;;;;;19.50;7.30;;;;;;;5.98;100.00;101126.84;6251655;28;20045;-72
2023/02/22 05:59:30;;;;;;;15.35;6.18;;;;;;;6.01;100.00;101126.75;6251980;28;20049;-72
2023/02/22 06:02:31;;;;;;;20.58;6.57;;;;;;;5.99;100.00;101128.53;6247362;28;20048;-72
2023/02/22 06:05:33;;;;;;;19.48;6.95;;;;;;;5.96;100.00;101123.44;6247662;28;20046;-72
2023/02/22 06:08:36;;;;;;;21.38;6.60;;;;;;;5.97;100.00;101125.13;6251464;28;20052;-72
2023/02/22 06:11:37;;;;;;;19.63;7.47;;;;;;;5.93;100.00;101118.28;6246331;28;20046;-72
2023/02/22 06:14:39;;;;;;;20.00;7.20;;;;;;;5.94;100.00;101116.53;6248640;28;20053;-72
2023/02/22 06:17:41;;;;;;;17.50;5.88;;;;;;;5.98;100.00;101118.16;6247625;28;20050;-72
2023/02/22 06:20:43;;;;;;;20.60;6.97;;;;;;;5.91;100.00;101114.84;6248811;28;20053;-72
2023/02/22 06:23:45;;;;;;;19.20;6.53;;;;;;;5.92;100.00;101107.91;6251041;28;20140;-72
2023/02/22 06:26:53;;;;;;;20.35;7.32;;;;;;;5.93;100.00;101117.44;6250903;28;20072;-72
2023/02/22 06:29:55;;;;;;;18.35;6.95;;;;;;;5.91;100.00;101119.22;6251108;28;20056;-72
2023/02/22 06:32:56;;;;;;;15.45;5.65;;;;;;;5.92;100.00;101120.94;6251000;28;20361;-72
2023/02/22 06:35:57;;;;;;;21.08;7.47;;;;;;;5.90;100.00;101123.53;6250697;28;20060;-72
2023/02/22 06:39:00;;;;;;;19.80;6.75;;;;;;;5.89;100.00;101127.06;6250745;28;20377;-72
2023/02/22 06:42:01;;;;;;;25.50;6.55;;;;;;;5.85;100.00;101125.44;6250828;28;20045;-72
2023/02/22 06:45:03;;;;;;;20.38;6.55;;;;;;;5.87;100.00;101130.63;6250540;28;20053;-72
2023/02/22 06:48:05;;;;;;;20.02;7.05;;;;;;;5.86;100.00;101124.56;6248397;28;20053;-72
2023/02/22 06:51:08;;;;;;;18.33;5.68;;;;;;;5.90;100.00;101131.38;6250518;28;20050;-72
2023/02/22 06:54:10;;;;;;;18.58;5.43;;;;;;;5.90;100.00;101128.75;6250566;28;20060;-72
2023/02/22 06:57:11;;;;;;;15.63;6.65;;;;;;;5.89;100.00;101127.06;6250316;28;20045;-72
2023/02/22 07:00:15;;;;;;;21.13;6.55;;;;;;;5.70;100.00;101123.25;6252646;28;20049;-72
2023/02/22 07:03:17;;;;;;;17.83;5.65;;;;;;;5.62;100.00;101120.84;6237372;28;20042;-72
2023/02/22 07:06:18;;;;;;;19.35;5.43;;;;;;;5.64;100.00;101124.28;6244754;28;20053;-72
2023/02/22 07:09:21;;;;;;;24.25;7.55;;;;;;;5.64;100.00;101124.28;6250428;28;20054;-72
2023/02/22 07:12:22;;;;;;;20.90;7.50;;;;;;;5.67;100.00;101120.72;6250587;28;20042;-72
2023/02/22 07:15:26;;;;;;;17.05;5.95;;;;;;;5.72;100.00;101119.72;6250036;28;20045;-72
2023/02/22 07:18:28;;;;;;;23.58;7.40;;;;;;;5.72;100.00;101116.22;6248834;28;20135;-72
2023/02/22 07:21:30;;;;;;;15.68;6.25;;;;;;;5.76;100.00;101125.69;6250290;28;20046;-72
2023/02/22 07:24:33;;;;;;;20.35;5.20;;;;;;;5.77;100.00;101114.38;6249930;28;20340;-72
2023/02/22 07:27:36;;;;;;;16.95;5.65;;;;;;;5.80;100.00;101119.50;6249957;28;20386;-72
2023/02/22 07:30:38;;;;;;;15.02;4.28;;;;;;;5.86;100.00;101119.34;6250109;28;20038;-72
2023/02/22 07:33:39;;;;;;;16.05;6.68;;;;;;;5.83;100.00;101122.03;6255676;28;20053;-72
2023/02/22 07:36:41;;;;;;;14.88;5.30;;;;;;;5.88;100.00;101125.34;6230505;28;20073;-72
2023/02/22 07:39:43;;;;;;;17.75;5.05;;;;;;;5.92;100.00;101121.81;6247818;28;20049;-72
2023/02/22 07:42:52;;;;;;;15.80;5.38;;;;;;;5.97;100.00;101116.44;6238937;28;20077;-72
2023/02/22 07:45:55;;;;;;;13.73;4.88;;;;;;;6.00;100.00;101113.78;6243912;28;20365;-72
2023/02/22 07:48:56;;;;;;;9.55;4.28;;;;;;;6.07;100.00;101123.13;6237912;28;20137;-72
2023/02/22 07:51:58;;;;;;;14.70;4.63;;;;;;;6.12;100.00;101116.00;6242130;28;20045;-72
2023/02/22 07:55:00;;;;;;;22.50;6.53;;;;;;;6.13;100.00;101117.72;6239135;28;20049;-72
2023/02/22 07:58:06;;;;;;;16.13;5.22;;;;;;;6.18;100.00;101110.63;6235443;28;20345;-72
2023/02/22 08:01:07;;;;;;;16.10;5.18;;;;;;;6.26;100.00;101106.00;6244406;28;20068;-72
2023/02/22 08:04:09;;;;;;;17.55;5.28;;;;;;;6.32;100.00;101113.69;6254281;28;20060;-72
2023/02/22 08:07:10;;;;;;;22.08;6.70;;;;;;;6.38;100.00;101112.63;6229706;28;20056;-72
2023/02/22 08:10:14;;;;;;;16.17;5.80;;;;;;;6.44;100.00;101111.59;6247762;28;20056;-73
2023/02/22 08:13:16;;;;;;;15.60;5.65;;;;;;;6.47;100.00;101106.28;6254332;28;20049;-72
2023/02/22 08:16:18;;;;;;;14.80;5.13;;;;;;;6.52;100.00;101109.59;6253978;28;20057;-72
2023/02/22 08:19:19;;;;;;;16.40;6.15;;;;;;;6.59;100.00;101112.00;6246265;28;20349;-73
2023/02/22 08:22:20;;;;;;;16.90;6.32;;;;;;;6.68;100.00;101110.00;6239373;28;20045;-73
2023/02/22 08:25:25;;;;;;;22.58;5.60;;;;;;;6.70;100.00;101109.03;6241488;28;20049;-73
2023/02/22 08:28:27;;;;;;;14.43;5.28;;;;;;;6.75;100.00;101107.13;6229224;28;20442;-73
2023/02/22 08:31:28;;;;;;;17.73;5.65;;;;;;;6.79;100.00;101111.34;6253667;28;20048;-73
2023/02/22 08:34:29;;;;;;;18.35;5.68;;;;;;;6.83;100.00;101102.50;6237391;28;20449;-73
2023/02/22 08:37:31;;;;;;;17.23;5.97;;;;;;;6.93;100.00;101102.22;6241633;28;20365;-73
2023/02/22 08:40:36;;;;;;;17.20;6.07;;;;;;;7.01;100.00;101101.06;6251675;28;20054;-74
2023/02/22 08:43:37;;;;;;;14.20;5.60;;;;;;;7.08;100.00;101099.94;6253293;28;20041;-73
2023/02/22 08:46:39;;;;;;;13.20;5.63;;;;;;;7.15;100.00;101092.75;6253292;28;20353;-73
2023/02/22 08:49:40;;;;;;;18.15;5.57;;;;;;;7.22;100.00;101093.41;6251772;28;20172;-73
2023/02/22 08:52:42;;;;;;;21.88;6.78;;;;;;;7.30;100.00;101092.22;6248707;28;20080;-73
2023/02/22 08:55:45;;;;;;;16.02;6.20;;;;;;;7.40;100.00;101091.91;6250804;28;20049;-73
2023/02/22 08:58:47;;;;;;;21.35;7.07;;;;;;;7.45;100.00;101090.00;6253332;28;20442;-74
2023/02/22 09:01:49;;;;;;;25.58;8.10;;;;;;;7.49;100.00;101086.38;6252866;28;20385;-74
2023/02/22 09:04:50;;;;;;;24.92;6.38;;;;;;;7.58;100.00;101084.28;6252925;28;20057;-73
2023/02/22 09:07:52;;;;;;;15.27;5.88;;;;;;;7.67;100.00;101083.09;6252804;28;20049;-73
2023/02/22 09:10:55;;;;;;;22.17;6.88;;;;;;;7.75;100.00;101085.44;6252072;28;20045;-72
2023/02/22 09:13:56;;;;;;;23.45;7.88;;;;;;;7.80;100.00;101080.91;6252742;28;20335;-73
2023/02/22 09:16:57;;;;;;;17.02;6.82;;;;;;;7.87;100.00;101074.53;6252437;28;20053;-74
2023/02/22 09:19:59;;;;;;;26.55;8.40;;;;;;;7.96;100.00;101083.81;6249316;28;20049;-74
2023/02/22 09:23:01;;;;;;;23.48;8.40;;;;;;;8.13;100.00;101082.28;6252471;28;20050;-74
2023/02/22 09:26:04;;;;;;;22.05;7.97;;;;;;;8.22;100.00;101073.22;6252429;28;20092;-73
2023/02/22 09:29:08;;;;;;;28.38;8.02;;;;;;;8.27;100.00;101078.28;6252245;28;20053;-73
2023/02/22 09:32:09;;;;;;;23.35;7.35;;;;;;;8.25;100.00;101077.47;6252610;28;20045;-73
2023/02/22 09:35:11;;;;;;;25.25;8.63;;;;;;;8.29;100.00;101072.06;6252096;28;20064;-74
2023/02/22 09:38:16;;;;;;;27.48;8.70;;;;;;;8.35;100.00;101063.09;6252072;28;20353;-73
2023/02/22 09:41:31;;;;;;;25.10;8.43;;;;;;;8.41;100.00;101068.16;6244161;28;20057;-73
2023/02/22 09:44:42;;;;;;;20.60;6.70;;;;;;;8.46;100.00;101068.81;6256072;28;20468;-73
2023/02/22 09:47:49;;;;;;;22.98;8.52;;;;;;;8.54;100.00;101058.03;6227239;28;20058;-74
2023/02/22 09:50:53;;;;;;;20.45;7.30;;;;;;;8.60;100.00;101063.03;6243489;28;20059;-74
2023/02/22 09:54:00;;;;;;;23.33;8.55;;;;;;;8.68;100.00;101060.97;6251030;28;20049;-74
2023/02/22 09:57:07;;;;;;;27.98;8.43;;;;;;;8.72;100.00;101070.41;6251793;28;20060;-73
2023/02/22 10:00:17;;;;;;;20.65;8.00;;;;;;;8.76;100.00;101066.72;6244647;28;20049;-74
2023/02/22 10:03:24;;;;;;;23.05;8.40;;;;;;;8.81;100.00;101066.53;6251696;28;20049;-74
2023/02/22 10:06:26;;;;;;;28.25;9.13;;;;;;;8.87;100.00;101061.91;6256141;28;20046;-74
2023/02/22 10:09:29;;;;;;;26.83;7.80;;;;;;;8.99;100.00;101050.06;6226977;28;20072;-74
2023/02/22 10:12:41;;;;;;;22.38;8.07;;;;;;;9.05;100.00;101056.84;6227315;28;20045;-75
2023/02/22 10:15:50;;;;;;;20.83;9.00;;;;;;;9.14;100.00;101049.44;6226819;28;20053;-75
2023/02/22 10:19:11;;;;;;;26.30;9.37;;;;;;;9.25;100.00;101045.50;6233806;28;20369;-74
2023/02/22 10:22:26;;;;;;;22.85;8.48;;;;;;;9.30;100.00;101043.50;6243858;28;20315;-74
2023/02/22 10:25:33;;;;;;;26.10;9.23;;;;;;;9.38;100.00;101042.28;6250799;28;20045;-74
2023/02/22 10:28:42;;;;;;;26.58;8.77;;;;;;;9.45;100.00;101048.13;6244622;28;20045;-74
2023/02/22 10:31:46;;;;;;;25.90;8.68;;;;;;;9.48;100.00;101040.09;6253363;28;20397;-74
2023/02/22 10:34:50;;;;;;;23.15;8.52;;;;;;;9.55;100.00;101032.81;6249129;28;20056;-74
2023/02/22 10:37:55;;;;;;;22.35;8.95;;;;;;;9.64;100.00;101032.41;6250661;28;20088;-73
2023/02/22 10:41:01;;;;;;;20.98;8.13;;;;;;;9.71;100.00;101030.34;6251115;28;20049;-74
2023/02/22 10:44:04;;;;;;;19.17;8.23;;;;;;;9.74;100.00;101025.81;6250491;28;20045;-74
2023/02/22 10:47:10;;;;;;;21.60;8.52;;;;;;;9.79;100.00;101036.09;6250755;28;20049;-74
2023/02/22 10:50:13;;;;;;;25.45;8.65;;;;;;;9.81;100.00;101029.88;6248760;28;20050;-74
2023/02/22 10:53:15;;;;;;;19.08;7.75;;;;;;;9.87;100.00;101028.72;6248478;28;20519;-73
2023/02/22 10:56:20;;;;;;;21.35;8.07;;;;;;;9.92;100.00;101021.50;6244462;28;20060;-74
2023/02/22 10:59:32;;;;;;;21.58;8.20;;;;;;;10.02;100.00;101019.28;6250813;28;20056;-74
2023/02/22 11:02:35;;;;;;;22.10;8.02;;;;;;;10.12;100.00;101013.53;6250363;28;20452;-75
2023/02/22 11:05:38;;;;;;;28.75;9.57;;;;;;;10.16;100.00;101007.22;6249523;28;20445;-74
2023/02/22 11:08:40;;;;;;;22.48;8.73;;;;;;;10.23;100.00;101001.69;6247727;28;20053;-74
2023/02/22 11:11:44;;;;;;;17.45;8.30;;;;;;;10.31;100.00;100997.81;6237491;28;20061;-74
2023/02/22 11:14:48;;;;;;;19.25;8.65;;;;;;;10.35;100.00;100988.81;6240130;28;20175;-74
2023/02/22 11:17:51;;;;;;;20.75;7.95;;;;;;;10.41;100.00;100991.16;6238634;28;20103;-74
2023/02/22 11:21:01;;;;;;;19.80;7.88;;;;;;;10.54;100.00;100993.19;6239876;28;20054;-75
2023/02/22 11:24:08;;;;;;;22.15;8.20;;;;;;;10.61;100.00;100989.34;6241658;28;20046;-74
2023/02/22 11:27:09;;;;;;;23.00;8.23;;;;;;;10.75;100.00;100984.22;6248054;28;20053;-74
2023/02/22 11:30:25;;;;;;;23.10;8.50;;;;;;;10.80;100.00;100979.59;6250103;28;20049;-75
2023/02/22 11:33:28;;;;;;;17.98;6.93;;;;;;;10.88;100.00;100961.66;6239022;28;20049;-74
2023/02/22 11:36:36;;;;;;;22.50;8.40;;;;;;;10.94;100.00;100971.00;6246392;28;20052;-74
2023/02/22 11:39:37;;;;;;;21.58;7.97;;;;;;;11.03;100.00;100964.41;6255096;28;20042;-74
2023/02/22 11:42:39;;;;;;;22.05;7.95;;;;;;;11.18;100.00;100961.84;6254784;28;20041;-74
2023/02/22 11:45:59;;;;;;;22.08;9.10;;;;;;;11.26;100.00;100965.84;6259210;28;20057;-74
2023/02/22 11:49:03;;;;;;;19.98;7.90;;;;;;;11.33;100.00;100960.19;6244281;28;20045;-74
2023/02/22 11:52:22;;;;;;;25.80;7.80;;;;;;;11.42;100.00;100954.44;6254366;28;20046;-74
2023/02/22 11:55:30;;;;;;;15.35;7.47;;;;;;;11.47;100.00;100954.19;6254267;28;20042;-74
2023/02/22 11:58:40;;;;;;;23.55;7.93;;;;;;;11.53;100.00;100950.38;6254678;28;20053;-75
2023/02/22 12:01:50;;;;;;;17.73;7.82;;;;;;;11.63;100.00;100947.19;6253993;28;20056;-75
2023/02/22 12:05:17;;;;;;;21.58;8.18;;;;;;;11.74;100.00;100943.94;6251543;28;20049;-76
2023/02/22 12:08:26;;;;;;;19.30;7.13;;;;;;;11.83;100.00;100943.47;6254385;28;20057;-75
2023/02/22 12:11:39;;;;;;;23.15;8.57;;;;;;;11.96;100.00;100938.38;6250475;28;20042;-74
2023/02/22 12:14:48;;;;;;;19.92;8.93;;;;;;;12.02;100.00;100929.28;6251478;28;20045;-74
2023/02/22 12:18:00;;;;;;;20.55;8.63;;;;;;;12.14;100.00;100936.50;6253848;28;20046;-74
2023/02/22 12:21:07;;;;;;;18.65;6.88;;;;;;;12.19;100.00;100926.53;6253143;28;20046;-74
2023/02/22 12:24:13;;;;;;;20.95;8.90;;;;;;;12.23;100.00;100925.44;6253685;28;20436;-74
2023/02/22 12:27:19;;;;;;;20.90;8.27;;;;;;;12.25;100.00;100923.53;6258425;28;20052;-74
2023/02/22 12:30:23;;;;;;;18.80;7.93;;;;;;;12.30;100.00;100924.13;6244691;28;20057;-74
2023/02/22 12:33:31;;;;;;;19.10;8.32;;;;;;;12.26;100.00;100916.47;6253829;28;20041;-74
2023/02/22 12:36:38;;;;;;;22.85;8.75;;;;;;;12.28;100.00;100914.63;6253567;28;20053;-74
2023/02/22 12:39:49;;;;;;;20.20;7.47;;;;;;;12.24;100.00;100921.84;6248821;28;20045;-75
2023/02/22 12:42:59;;;;;;;19.85;8.73;;;;;;;12.23;100.00;100921.94;6229291;28;20046;-74
2023/02/22 12:46:03;;;;;;;;;;;;;;;12.14;100.00;100924.16;6235863;28;20052;-74
2023/02/22 12:49:14;;;;;;;19.35;8.20;;;;;;;12.18;100.00;100916.94;6238189;28;19925;-73
2023/02/22 12:52:33;;;;;;;27.27;10.50;;;;;;;12.19;100.00;100927.38;6231210;28;20049;-74
2023/02/22 12:55:44;;;;;;;17.95;7.85;;;;;;;12.24;100.00;100910.47;6231033;28;20042;-74
2023/02/22 12:58:52;;;;;;;19.33;8.00;;;;;;;12.25;100.00;100915.63;6238953;28;20529;-74
2023/02/22 13:02:00;;;;;;;19.00;8.80;;;;;;;12.23;100.00;100904.34;6232636;28;20045;-74
2023/02/22 13:05:03;;;;;;;21.95;8.02;;;;;;;12.34;100.00;100903.72;6236577;28;20056;-74
2023/02/22 13:08:24;;;;;;;22.98;9.15;;;;;;;12.32;100.00;100903.81;6252619;28;20053;-74
2023/02/22 13:11:32;;;;;;;23.75;9.63;;;;;;;12.37;100.00;100898.28;6253076;28;20046;-74
2023/02/22 13:14:49;;;;;;;18.55;7.90;;;;;;;12.36;100.00;100901.84;6248767;28;20049;-74
2023/02/22 13:18:00;;;;;;;19.15;8.68;;;;;;;12.43;100.00;100897.91;6244126;28;20057;-74
2023/02/22 13:21:09;;;;;;;18.73;8.30;;;;;;;12.48;100.00;100893.22;6247708;28;20049;-74
2023/02/22 13:24:18;;;;;;;24.80;8.98;;;;;;;12.42;100.00;100883.03;6239843;28;20045;-73
2023/02/22 13:27:25;;;;;;;19.48;8.02;;;;;;;12.43;100.00;100879.47;6245084;28;20041;-74
2023/02/22 13:30:38;;;;;;;18.38;7.75;;;;;;;12.43;100.00;100868.91;6237063;28;20049;-73
2023/02/22 13:33:57;;;;;;;20.67;7.80;;;;;;;12.47;100.00;100866.94;6236773;28;20041;-74
2023/02/22 13:37:20;;;;;;;23.80;9.13;;;;;;;12.48;100.00;100871.28;6230932;28;20046;-74
2023/02/22 13:40:38;;;;;;;20.77;8.55;;;;;;;12.47;100.00;100865.16;6243124;28;20317;-74
2023/02/22 13:44:24;;;;;;;21.45;8.13;;;;;;;12.47;100.00;100865.16;6239818;28;20072;-74
2023/02/22 13:47:52;;;;;;;18.70;8.70;;;;;;;12.52;100.00;100860.47;6232632;28;20049;-74
2023/02/22 13:51:33;;;;;;;21.15;8.13;;;;;;;12.54;100.00;100861.22;6235551;28;20045;-74
2023/02/22 13:54:40;;;;;;;20.95;8.45;;;;;;;12.58;100.00;100854.84;6233169;28;20057;-75
2023/02/22 13:57:47;;;;;;;17.27;8.55;;;;;;;12.67;100.00;100846.38;6240054;28;20083;-74
2023/02/22 14:00:50;;;;;;;16.88;7.68;;;;;;;12.77;100.00;100844.03;6248668;28;20638;-74
2023/02/22 14:04:19;;;;;;;23.98;8.65;;;;;;;12.72;100.00;100843.47;6246084;28;20045;-74
2023/02/22 14:07:54;;;;;;;24.42;8.13;;;;;;;12.76;100.00;100849.38;6239852;28;20346;-75
2023/02/22 14:10:59;;;;;;;18.92;8.57;;;;;;;12.76;100.00;100849.38;6237917;28;20065;-77
2023/02/22 14:14:13;;;;;;;21.67;8.10;;;;;;;12.75;100.00;100845.03;6233206;28;20050;-74